createdAt,value
2018-05-13T00:00:26.489Z,6.13
2018-05-13T00:02:54.027Z,5.97
2018-05-13T00:05:21.684Z,6.07
2018-05-13T00:07:49.168Z,5.40
2018-05-13T00:10:16.723Z,5.97
2018-05-13T00:12:44.263Z,6.43
2018-05-13T00:15:11.823Z,8.03
2018-05-13T00:17:39.347Z,6.33
2018-05-13T00:20:06.901Z,8.60
2018-05-13T00:22:34.438Z,5.83
2018-05-13T00:25:02.003Z,5.90
2018-05-13T00:27:29.536Z,6.47
2018-05-13T00:29:57.063Z,6.37
2018-05-13T00:32:25.415Z,8.00
2018-05-13T00:34:52.996Z,7.17
2018-05-13T00:37:21.324Z,6.30
2018-05-13T00:39:48.859Z,6.90
2018-05-13T00:42:16.413Z,7.17
2018-05-13T00:44:43.940Z,7.60
2018-05-13T00:47:11.512Z,7.57
2018-05-13T00:49:39.826Z,7.70
2018-05-13T00:52:07.363Z,8.73
2018-05-13T00:54:47.532Z,8.00
2018-05-13T00:57:15.089Z,7.70
2018-05-13T00:59:42.635Z,7.00
2018-05-13T01:02:10.961Z,7.37
2018-05-13T01:04:38.526Z,8.23
2018-05-13T01:07:06.080Z,9.03
2018-05-13T01:09:33.631Z,10.00
2018-05-13T01:12:01.164Z,10.60
2018-05-13T01:14:28.719Z,8.90
2018-05-13T01:16:57.136Z,8.63
2018-05-13T01:19:24.693Z,8.63
2018-05-13T01:21:52.224Z,7.70
2018-05-13T01:24:19.776Z,7.20
2018-05-13T01:26:48.164Z,6.17
2018-05-13T01:29:15.723Z,6.70
2018-05-13T01:31:44.015Z,5.60
2018-05-13T01:34:11.556Z,5.83
2018-05-13T01:36:39.880Z,5.03
2018-05-13T01:39:07.439Z,6.40
2018-05-13T01:41:34.933Z,5.77
2018-05-13T01:44:02.404Z,5.27
2018-05-13T01:46:30.663Z,5.10
2018-05-13T01:48:58.144Z,5.43
2018-05-13T01:51:26.399Z,5.77
2018-05-13T01:53:53.869Z,6.00
2018-05-13T01:56:21.370Z,5.47
2018-05-13T01:58:48.854Z,5.50
2018-05-13T02:01:16.345Z,5.63
2018-05-13T02:03:44.582Z,6.67
2018-05-13T02:06:12.085Z,5.33
2018-05-13T02:08:40.324Z,5.40
2018-05-13T02:11:07.831Z,5.77
2018-05-13T02:13:36.066Z,5.50
2018-05-13T02:16:03.619Z,5.70
2018-05-13T02:18:31.121Z,4.43
2018-05-13T02:20:59.364Z,5.40
2018-05-13T02:23:26.863Z,5.30
2018-05-13T02:25:54.344Z,5.20
2018-05-13T02:28:21.847Z,5.37
2018-05-13T02:30:49.327Z,5.20
2018-05-13T02:33:17.596Z,4.70
2018-05-13T02:35:45.081Z,4.60
2018-05-13T02:38:12.555Z,4.30
2018-05-13T02:40:40.055Z,9.87
2018-05-13T02:43:07.554Z,4.87
2018-05-13T02:45:35.062Z,5.50
2018-05-13T02:48:02.576Z,5.13
2018-05-13T02:50:30.076Z,4.70
2018-05-13T02:52:57.552Z,4.67
2018-05-13T02:55:25.047Z,4.50
2018-05-13T02:57:52.531Z,4.93
2018-05-13T03:00:20.032Z,4.23
2018-05-13T03:02:47.518Z,4.50
2018-05-13T03:05:15.013Z,4.87
2018-05-13T03:07:42.484Z,5.10
2018-05-13T03:10:09.981Z,5.00
2018-05-13T03:12:37.451Z,6.03
2018-05-13T03:15:05.713Z,5.23
2018-05-13T03:17:33.976Z,5.43
2018-05-13T03:20:01.448Z,6.93
2018-05-13T03:22:29.052Z,5.80
2018-05-13T03:24:56.528Z,5.27
2018-05-13T03:27:24.048Z,6.70
2018-05-13T03:29:51.524Z,6.60
2018-05-13T03:32:19.004Z,5.47
2018-05-13T03:34:46.502Z,4.53
2018-05-13T03:37:14.005Z,5.37
2018-05-13T03:39:41.474Z,5.40
2018-05-13T03:42:08.975Z,4.90
2018-05-13T03:44:36.468Z,4.93
2018-05-13T03:47:03.943Z,4.57
2018-05-13T03:49:31.443Z,4.27
2018-05-13T03:51:58.918Z,4.60
2018-05-13T03:54:27.176Z,5.33
2018-05-13T03:56:54.656Z,3.67
2018-05-13T03:59:22.918Z,3.80
2018-05-13T04:01:50.400Z,3.60
2018-05-13T04:04:18.683Z,3.73
2018-05-13T04:06:46.156Z,3.60
2018-05-13T04:09:25.667Z,3.83
2018-05-13T04:12:05.878Z,3.97
2018-05-13T04:14:45.323Z,3.83
2018-05-13T04:17:12.831Z,4.00
2018-05-13T04:19:41.096Z,4.07
2018-05-13T04:22:09.335Z,3.47
2018-05-13T04:24:36.835Z,3.67
2018-05-13T04:27:05.073Z,3.70
2018-05-13T04:29:32.548Z,5.13
2018-05-13T04:32:00.051Z,3.80
2018-05-13T04:34:27.566Z,3.50
2018-05-13T04:36:55.072Z,4.07
2018-05-13T04:39:22.546Z,4.90
2018-05-13T04:41:50.049Z,3.73
2018-05-13T04:44:17.512Z,4.10
2018-05-13T04:46:45.759Z,4.13
2018-05-13T04:49:13.263Z,4.60
2018-05-13T04:51:41.503Z,3.50
2018-05-13T04:54:09.003Z,3.87
2018-05-13T04:56:36.475Z,3.83
2018-05-13T04:59:03.977Z,4.60
2018-05-13T05:01:31.455Z,4.27
2018-05-13T05:03:58.939Z,4.50
2018-05-13T05:06:26.413Z,4.17
2018-05-13T05:08:53.972Z,4.13
2018-05-13T05:11:21.395Z,3.50
2018-05-13T05:13:48.893Z,4.23
2018-05-13T05:16:16.370Z,4.03
2018-05-13T05:18:43.889Z,4.40
2018-05-13T05:21:12.151Z,3.80
2018-05-13T05:23:39.618Z,5.30
2018-05-13T05:26:07.889Z,4.10
2018-05-13T05:28:36.126Z,3.67
2018-05-13T05:31:03.626Z,3.43
2018-05-13T05:33:31.863Z,3.67
2018-05-13T05:35:59.370Z,4.30
2018-05-13T05:38:26.850Z,4.30
2018-05-13T05:40:54.328Z,3.80
2018-05-13T05:43:21.822Z,3.50
2018-05-13T05:45:49.295Z,3.67
2018-05-13T05:48:17.603Z,4.07
2018-05-13T05:50:45.802Z,3.07
2018-05-13T05:53:13.299Z,3.63
2018-05-13T05:55:41.547Z,3.50
2018-05-13T05:58:09.054Z,3.27
2018-05-13T06:00:36.524Z,4.10
2018-05-13T06:03:04.025Z,2.97
2018-05-13T06:05:31.523Z,3.40
2018-05-13T06:07:59.751Z,3.30
2018-05-13T06:10:27.247Z,3.03
2018-05-13T06:12:55.488Z,3.30
2018-05-13T06:15:22.994Z,3.73
2018-05-13T06:17:51.227Z,3.97
2018-05-13T06:20:18.732Z,3.50
2018-05-13T06:22:46.997Z,3.60
2018-05-13T06:25:15.387Z,2.70
2018-05-13T06:27:43.525Z,3.90
2018-05-13T06:30:11.020Z,3.93
2018-05-13T06:32:38.495Z,4.20
2018-05-13T06:35:06.003Z,4.27
2018-05-13T06:37:33.485Z,4.00
2018-05-13T06:40:01.746Z,4.37
2018-05-13T06:42:29.231Z,4.70
2018-05-13T06:44:57.511Z,4.57
2018-05-13T06:47:24.998Z,6.20
2018-05-13T06:49:52.483Z,3.93
2018-05-13T06:52:19.976Z,7.43
2018-05-13T06:54:48.263Z,4.07
2018-05-13T06:57:15.774Z,7.23
2018-05-13T06:59:43.514Z,4.53
2018-05-13T07:02:11.058Z,4.87
2018-05-13T07:04:38.596Z,4.63
2018-05-13T07:07:06.036Z,4.17
2018-05-13T07:09:33.552Z,6.00
2018-05-13T07:12:01.047Z,6.93
2018-05-13T07:14:28.544Z,4.60
2018-05-13T07:16:56.046Z,5.43
2018-05-13T07:19:23.551Z,6.33
2018-05-13T07:21:51.794Z,5.73
2018-05-13T07:24:19.302Z,5.30
2018-05-13T07:26:47.616Z,5.30
2018-05-13T07:29:15.148Z,4.60
2018-05-13T07:31:42.629Z,7.87
2018-05-13T07:34:10.161Z,5.17
2018-05-13T07:36:37.640Z,7.07
2018-05-13T07:39:05.182Z,6.10
2018-05-13T07:41:32.684Z,5.27
2018-05-13T07:44:00.171Z,5.73
2018-05-13T07:46:28.428Z,6.07
2018-05-13T07:48:55.943Z,6.17
2018-05-13T07:51:23.453Z,5.90
2018-05-13T07:53:50.958Z,7.67
2018-05-13T07:56:18.434Z,6.17
2018-05-13T07:58:45.936Z,6.50
2018-05-13T08:01:14.187Z,6.93
2018-05-13T08:03:41.692Z,8.00
2018-05-13T08:06:09.258Z,7.53
2018-05-13T08:08:37.533Z,7.70
2018-05-13T08:11:05.018Z,9.17
2018-05-13T08:13:32.539Z,6.87
2018-05-13T08:16:00.802Z,5.67
2018-05-13T08:18:28.300Z,6.30
2018-05-13T08:20:55.779Z,5.93
2018-05-13T08:23:24.090Z,6.13
2018-05-13T08:25:52.486Z,6.23
2018-05-13T08:28:20.733Z,5.17
2018-05-13T08:30:48.242Z,5.80
2018-05-13T08:33:15.738Z,5.43
2018-05-13T08:35:43.239Z,5.73
2018-05-13T08:38:11.484Z,5.67
2018-05-13T08:40:38.988Z,6.03
2018-05-13T08:43:06.477Z,6.43
2018-05-13T08:45:34.017Z,6.50
2018-05-13T08:48:01.490Z,6.80
2018-05-13T08:50:28.977Z,6.23
2018-05-13T08:52:56.476Z,5.90
2018-05-13T08:55:24.762Z,7.30
2018-05-13T08:57:52.268Z,7.40
2018-05-13T09:00:19.788Z,6.27
2018-05-13T09:02:47.259Z,5.83
2018-05-13T09:05:14.782Z,6.60
2018-05-13T09:07:43.022Z,7.67
2018-05-13T09:10:10.519Z,6.60
2018-05-13T09:12:38.804Z,5.90
2018-05-13T09:15:07.064Z,5.70
2018-05-13T09:17:34.551Z,6.47
2018-05-13T09:20:02.068Z,6.60
2018-05-13T09:22:29.563Z,6.37
2018-05-13T09:24:57.049Z,7.60
2018-05-13T09:27:24.555Z,7.47
2018-05-13T09:29:52.060Z,5.90
2018-05-13T09:32:19.539Z,7.03
2018-05-13T09:34:47.056Z,6.80
2018-05-13T09:37:14.547Z,6.80
2018-05-13T09:39:42.063Z,7.80
2018-05-13T09:42:10.302Z,7.00
2018-05-13T09:44:37.866Z,6.40
2018-05-13T09:47:05.342Z,7.27
2018-05-13T09:49:32.866Z,6.50
2018-05-13T09:52:01.159Z,6.20
2018-05-13T09:54:28.675Z,6.60
2018-05-13T09:56:56.177Z,6.53
2018-05-13T09:59:23.998Z,6.30
2018-05-13T10:01:51.497Z,7.03
2018-05-13T10:04:18.975Z,6.77
2018-05-13T10:06:46.483Z,8.40
2018-05-13T10:09:13.984Z,8.40
2018-05-13T10:11:41.488Z,8.00
2018-05-13T10:14:08.971Z,9.20
2018-05-13T10:16:36.475Z,9.63
2018-05-13T10:19:03.979Z,8.40
2018-05-13T10:21:31.523Z,9.30
2018-05-13T10:23:59.011Z,9.23
2018-05-13T10:26:26.527Z,9.73
2018-05-13T10:28:54.921Z,10.10
2018-05-13T10:31:22.483Z,9.00
2018-05-13T10:33:49.993Z,10.77
2018-05-13T10:36:17.505Z,8.97
2018-05-13T10:38:44.985Z,9.03
2018-05-13T10:41:12.457Z,9.70
2018-05-13T10:43:39.962Z,11.73
2018-05-13T10:46:08.204Z,10.17
2018-05-13T10:48:35.687Z,9.73
2018-05-13T10:51:04.006Z,9.40
2018-05-13T10:53:31.510Z,10.17
2018-05-13T10:55:59.023Z,10.47
2018-05-13T10:58:26.503Z,9.80
2018-05-13T11:00:54.016Z,12.53
2018-05-13T11:03:22.281Z,10.53
2018-05-13T11:05:50.775Z,10.43
2018-05-13T11:08:19.044Z,10.50
2018-05-13T11:10:47.287Z,9.60
2018-05-13T11:13:14.812Z,10.87
2018-05-13T11:15:42.288Z,10.23
2018-05-13T11:18:09.773Z,10.73
2018-05-13T11:20:37.306Z,10.73
2018-05-13T11:23:04.804Z,9.83
2018-05-13T11:25:32.319Z,10.30
2018-05-13T11:27:59.794Z,10.70
2018-05-13T11:30:27.304Z,10.60
2018-05-13T11:32:54.818Z,10.00
2018-05-13T11:35:22.340Z,10.40
2018-05-13T11:37:49.816Z,10.80
2018-05-13T11:40:17.327Z,10.10
2018-05-13T11:42:45.624Z,10.20
2018-05-13T11:45:13.197Z,12.03
2018-05-13T11:47:40.701Z,11.27
2018-05-13T11:50:08.196Z,11.37
2018-05-13T11:52:35.707Z,11.93
2018-05-13T11:55:03.225Z,11.53
2018-05-13T11:57:30.729Z,11.43
2018-05-13T11:59:58.230Z,11.73
2018-05-13T12:02:26.541Z,10.97
2018-05-13T12:04:54.014Z,13.70
2018-05-13T12:07:21.546Z,12.73
2018-05-13T12:09:49.059Z,12.30
2018-05-13T12:12:16.531Z,12.80
2018-05-13T12:14:44.803Z,14.03
2018-05-13T12:17:13.051Z,12.37
2018-05-13T12:19:40.569Z,10.47
2018-05-13T12:22:08.049Z,10.93
2018-05-13T12:24:35.542Z,11.77
2018-05-13T12:27:03.067Z,11.23
2018-05-13T12:29:30.649Z,11.13
2018-05-13T12:31:58.860Z,11.43
2018-05-13T12:34:27.095Z,10.53
2018-05-13T12:36:54.614Z,10.27
2018-05-13T12:39:22.099Z,9.70
2018-05-13T12:41:49.613Z,10.77
2018-05-13T12:44:17.887Z,10.27
2018-05-13T12:46:46.166Z,11.40
2018-05-13T12:49:14.417Z,10.63
2018-05-13T12:51:41.920Z,10.07
2018-05-13T12:54:09.407Z,11.30
2018-05-13T12:56:36.918Z,12.20
2018-05-13T12:59:05.165Z,10.67
2018-05-13T13:01:32.659Z,11.37
2018-05-13T13:04:00.941Z,10.17
2018-05-13T13:06:29.192Z,13.20
2018-05-13T13:08:56.720Z,12.20
2018-05-13T13:11:24.203Z,11.30
2018-05-13T13:13:51.699Z,8.83
2018-05-13T13:16:19.216Z,11.40
2018-05-13T13:18:46.719Z,10.17
2018-05-13T13:21:14.284Z,11.27
2018-05-13T13:23:41.775Z,10.73
2018-05-13T13:26:09.288Z,11.37
2018-05-13T13:28:37.531Z,10.23
2018-05-13T13:31:05.028Z,9.87
2018-05-13T13:33:32.519Z,9.50
2018-05-13T13:36:00.018Z,11.47
2018-05-13T13:38:27.503Z,11.83
2018-05-13T13:40:55.782Z,10.00
2018-05-13T13:43:23.259Z,11.07
2018-05-13T13:45:50.776Z,10.17
2018-05-13T13:48:19.031Z,11.43
2018-05-13T13:50:46.533Z,10.03
2018-05-13T13:53:14.080Z,9.87
2018-05-13T13:55:42.349Z,11.70
2018-05-13T13:58:09.839Z,11.00
2018-05-13T14:00:37.346Z,10.70
2018-05-13T14:03:04.836Z,12.80
2018-05-13T14:05:33.096Z,11.40
2018-05-13T14:08:00.601Z,12.10
2018-05-13T14:10:28.078Z,12.30
2018-05-13T14:12:55.624Z,11.33
2018-05-13T14:15:23.111Z,10.77
2018-05-13T14:17:50.629Z,10.03
2018-05-13T14:20:18.184Z,11.03
2018-05-13T14:22:45.634Z,10.90
2018-05-13T14:25:13.115Z,11.97
2018-05-13T14:27:40.623Z,12.30
2018-05-13T14:30:08.119Z,12.53
2018-05-13T14:32:36.005Z,14.30
2018-05-13T14:35:03.511Z,12.43
2018-05-13T14:37:31.048Z,11.57
2018-05-13T14:39:58.543Z,11.00
2018-05-13T14:42:26.813Z,11.70
2018-05-13T14:44:54.366Z,13.40
2018-05-13T14:47:21.862Z,13.40
2018-05-13T14:49:49.364Z,12.03
2018-05-13T14:52:16.880Z,12.23
2018-05-13T14:54:44.381Z,11.73
2018-05-13T14:57:11.874Z,13.10
2018-05-13T14:59:40.153Z,11.97
2018-05-13T15:02:08.397Z,13.10
2018-05-13T15:04:35.916Z,13.50
2018-05-13T15:07:03.417Z,10.30
2018-05-13T15:09:30.929Z,11.17
2018-05-13T15:11:58.420Z,11.53
2018-05-13T15:14:25.916Z,11.73
2018-05-13T15:16:54.217Z,11.07
2018-05-13T15:19:21.698Z,10.20
2018-05-13T15:21:49.202Z,10.37
2018-05-13T15:24:16.687Z,11.77
2018-05-13T15:26:44.970Z,11.70
2018-05-13T15:29:12.457Z,10.67
2018-05-13T15:31:39.960Z,11.43
2018-05-13T15:34:07.465Z,10.20
2018-05-13T15:36:34.985Z,10.83
2018-05-13T15:39:02.504Z,12.00
2018-05-13T15:41:29.990Z,12.47
2018-05-13T15:43:57.519Z,9.97
2018-05-13T15:46:25.004Z,10.50
2018-05-13T15:48:52.509Z,10.30
2018-05-13T15:51:19.984Z,12.47
2018-05-13T15:53:47.495Z,10.23
2018-05-13T15:56:15.749Z,12.33
2018-05-13T15:58:43.262Z,12.50
2018-05-13T16:01:10.761Z,10.43
2018-05-13T16:03:38.267Z,10.67
2018-05-13T16:06:05.784Z,12.13
2018-05-13T16:08:33.313Z,12.83
2018-05-13T16:11:00.803Z,10.57
2018-05-13T16:13:28.313Z,10.93
2018-05-13T16:15:55.815Z,14.60
2018-05-13T16:18:23.332Z,9.97
2018-05-13T16:20:50.826Z,9.83
2018-05-13T16:23:18.312Z,10.50
2018-05-13T16:25:45.850Z,11.60
2018-05-13T16:28:13.357Z,12.50
2018-05-13T16:30:41.639Z,13.03
2018-05-13T16:33:09.145Z,11.90
2018-05-13T16:35:36.673Z,12.13
2018-05-13T16:38:04.234Z,13.70
2018-05-13T16:40:31.734Z,13.63
2018-05-13T16:42:59.231Z,11.60
2018-05-13T16:45:26.722Z,13.97
2018-05-13T16:47:54.250Z,11.10
2018-05-13T16:50:22.506Z,12.13
2018-05-13T16:52:50.789Z,10.37
2018-05-13T16:55:19.026Z,11.53
2018-05-13T16:57:46.524Z,12.97
2018-05-13T17:00:14.769Z,12.43
2018-05-13T17:02:42.267Z,11.97
2018-05-13T17:05:10.518Z,12.93
2018-05-13T17:07:38.029Z,12.77
2018-05-13T17:10:05.514Z,12.03
2018-05-13T17:12:34.694Z,14.37
2018-05-13T17:15:02.179Z,17.63
2018-05-13T17:17:29.706Z,12.83
2018-05-13T17:19:57.219Z,13.77
2018-05-13T17:22:24.749Z,15.20
2018-05-13T17:24:52.258Z,14.93
2018-05-13T17:27:20.530Z,15.33
2018-05-13T17:29:48.856Z,14.97
2018-05-13T17:32:17.096Z,14.03
2018-05-13T17:34:44.596Z,12.93
2018-05-13T17:37:12.100Z,18.73
2018-05-13T17:39:40.364Z,16.90
2018-05-13T17:42:07.905Z,18.23
2018-05-13T17:44:35.394Z,13.43
2018-05-13T17:47:03.652Z,13.63
2018-05-13T17:49:31.161Z,13.50
2018-05-13T17:51:58.669Z,11.83
2018-05-13T17:54:26.157Z,21.13
2018-05-13T17:56:54.436Z,12.77
2018-05-13T17:59:22.697Z,12.70
2018-05-13T18:01:50.297Z,13.77
2018-05-13T18:04:17.857Z,15.00
2018-05-13T18:06:45.370Z,14.57
2018-05-13T18:09:12.895Z,14.87
2018-05-13T18:11:40.497Z,12.80
2018-05-13T18:14:07.913Z,11.87
2018-05-13T18:16:35.408Z,11.73
2018-05-13T18:19:02.912Z,10.40
2018-05-13T18:21:30.419Z,11.03
2018-05-13T18:23:57.916Z,11.90
2018-05-13T18:26:25.402Z,11.73
2018-05-13T18:28:52.914Z,13.70
2018-05-13T18:31:21.169Z,13.47
2018-05-13T18:33:48.679Z,13.10
2018-05-13T18:36:16.172Z,14.30
2018-05-13T18:38:43.684Z,16.17
2018-05-13T18:41:11.176Z,11.43
2018-05-13T18:43:38.685Z,14.40
2018-05-13T18:46:06.941Z,15.00
2018-05-13T18:48:34.459Z,14.47
2018-05-13T18:51:01.937Z,16.03
2018-05-13T18:53:29.436Z,16.00
2018-05-13T18:55:57.751Z,15.63
2018-05-13T18:58:25.310Z,14.65
2018-05-13T19:00:52.819Z,17.03
2018-05-13T19:03:20.328Z,16.57
2018-05-13T19:05:47.843Z,16.53
2018-05-13T19:08:15.349Z,15.07
2018-05-13T19:10:42.858Z,12.40
2018-05-13T19:13:10.367Z,14.30
2018-05-13T19:15:37.870Z,14.60
2018-05-13T19:18:05.437Z,13.73
2018-05-13T19:20:32.977Z,17.20
2018-05-13T19:23:00.475Z,17.40
2018-05-13T19:25:28.781Z,14.48
2018-05-13T19:27:56.282Z,16.00
2018-05-13T19:30:23.776Z,17.07
2018-05-13T19:32:51.290Z,16.98
2018-05-13T19:35:18.779Z,17.97
2018-05-13T19:37:46.290Z,14.13
2018-05-13T19:40:13.792Z,18.45
2018-05-13T19:42:42.066Z,15.17
2018-05-13T19:45:09.563Z,16.90
2018-05-13T19:47:37.077Z,18.50
2018-05-13T19:50:04.567Z,17.50
2018-05-13T19:52:32.050Z,17.87
2018-05-13T19:54:59.574Z,17.93
2018-05-13T19:57:27.833Z,24.58
2018-05-13T19:59:55.444Z,19.27
2018-05-13T20:02:22.952Z,23.50
2018-05-13T20:04:50.463Z,29.33
2018-05-13T20:07:17.983Z,28.83
2018-05-13T20:09:46.404Z,24.95
2018-05-13T20:12:13.920Z,25.37
2018-05-13T20:14:42.204Z,21.55
2018-05-13T20:17:10.462Z,23.65
2018-05-13T20:19:37.994Z,23.98
2018-05-13T20:22:05.472Z,24.02
2018-05-13T20:24:32.993Z,25.65
2018-05-13T20:27:00.487Z,23.93
2018-05-13T20:29:28.000Z,23.40
2018-05-13T20:31:55.487Z,20.90
2018-05-13T20:34:23.005Z,25.73
2018-05-13T20:36:50.495Z,21.27
2018-05-13T20:39:18.015Z,23.17
2018-05-13T20:41:46.288Z,17.40
2018-05-13T20:44:14.597Z,15.10
2018-05-13T20:46:42.092Z,21.13
2018-05-13T20:49:09.619Z,16.42
2018-05-13T20:51:37.138Z,17.75
2018-05-13T20:54:04.652Z,14.68
2018-05-13T20:56:32.161Z,13.23
2018-05-13T20:59:00.432Z,15.93
2018-05-13T21:01:28.695Z,16.23
2018-05-13T21:03:56.196Z,16.27
2018-05-13T21:06:23.701Z,15.13
2018-05-13T21:08:51.195Z,16.15
2018-05-13T21:11:19.473Z,17.52
2018-05-13T21:13:47.735Z,14.80
2018-05-13T21:16:15.243Z,15.20
2018-05-13T21:18:42.724Z,17.20
2018-05-13T21:21:10.252Z,11.87
2018-05-13T21:23:37.744Z,14.70
2018-05-13T21:26:05.245Z,15.63
2018-05-13T21:28:33.514Z,14.40
2018-05-13T21:31:01.800Z,14.20
2018-05-13T21:33:30.108Z,17.23
2018-05-13T21:35:57.616Z,19.05
2018-05-13T21:38:25.126Z,15.98
2018-05-13T21:40:53.077Z,17.40
2018-05-13T21:43:20.587Z,15.10
2018-05-13T21:45:48.070Z,15.65
2018-05-13T21:48:16.342Z,15.07
2018-05-13T21:50:43.839Z,15.07
2018-05-13T21:53:11.363Z,14.18
2018-05-13T21:55:39.622Z,14.48
2018-05-13T21:58:07.136Z,14.52
2018-05-13T22:00:34.636Z,16.60
2018-05-13T22:03:02.124Z,12.98
2018-05-13T22:05:29.627Z,15.30
2018-05-13T22:07:57.137Z,14.02
2018-05-13T22:10:25.412Z,13.50
2018-05-13T22:12:52.930Z,16.80
2018-05-13T22:15:20.431Z,16.63
2018-05-13T22:17:48.706Z,17.87
2018-05-13T22:20:16.958Z,14.02
2018-05-13T22:22:44.456Z,12.48
2018-05-13T22:25:12.735Z,13.40
2018-05-13T22:27:40.996Z,16.08
2018-05-13T22:30:08.488Z,14.03
2018-05-13T22:32:35.984Z,14.73
2018-05-13T22:35:03.485Z,15.53
2018-05-13T22:37:31.736Z,14.65
2018-05-13T22:39:59.253Z,11.20
2018-05-13T22:42:26.757Z,16.35
2018-05-13T22:44:54.276Z,15.00
2018-05-13T22:47:21.774Z,13.50
2018-05-13T22:49:49.281Z,15.60
2018-05-13T22:52:16.841Z,15.90
2018-05-13T22:54:45.141Z,14.80
2018-05-13T22:57:12.689Z,15.27
2018-05-13T22:59:40.168Z,12.70
2018-05-13T23:02:07.697Z,17.35
2018-05-13T23:04:35.196Z,15.43
2018-05-13T23:07:02.721Z,16.48
2018-05-13T23:09:30.212Z,18.80
2018-05-13T23:11:57.727Z,15.75
2018-05-13T23:14:25.215Z,15.52
2018-05-13T23:16:52.727Z,18.62
2018-05-13T23:19:20.987Z,22.35
2018-05-13T23:21:49.283Z,22.60
2018-05-13T23:24:17.542Z,22.27
2018-05-13T23:26:45.822Z,18.02
2018-05-13T23:29:14.104Z,17.50
2018-05-13T23:31:42.349Z,18.83
2018-05-13T23:34:09.884Z,20.05
2018-05-13T23:36:37.389Z,17.90
2018-05-13T23:39:04.894Z,22.62
2018-05-13T23:41:32.377Z,19.55
2018-05-13T23:43:59.882Z,24.05
2018-05-13T23:46:28.123Z,23.52
2018-05-13T23:48:55.625Z,23.70
2018-05-13T23:51:23.977Z,24.17
2018-05-13T23:53:52.177Z,21.87
2018-05-13T23:56:20.455Z,25.70
2018-05-13T23:58:48.724Z,20.10
